Time;durP1;ratioP1;P1;durP2;ratioP2;P2;SDS_P1;SDS_P2;PMS_P1;PMS_P2;Temp;Humidity;BMP_temperature;BMP_pressure;BME280_temperature;BME280_humidity;BME280_pressure;Samples;Min_cycle;Max_cycle;Signal;HPM_P1;HPM_P2
2024/01/30 00:01:21;;;;;;;12.00;9.90;;;4.30;99.90;;;;;;6163648;23;20436;-79
2024/01/30 00:03:52;;;;;;;11.93;10.70;;;4.20;99.90;;;;;;6162860;23;20428;-76
2024/01/30 00:06:23;;;;;;;12.37;10.33;;;4.20;99.90;;;;;;6157526;23;20413;-78
2024/01/30 00:08:56;;;;;;;12.27;9.93;;;3.90;99.90;;;;;;6157774;23;20412;-78
2024/01/30 00:11:29;;;;;;;11.77;10.50;;;4.20;99.90;;;;;;6157580;23;20723;-77
2024/01/30 00:13:57;;;;;;;12.60;10.63;;;3.90;99.90;;;;;;6157061;23;20435;-75
2024/01/30 00:16:29;;;;;;;14.77;11.80;;;4.40;99.90;;;;;;6157064;23;20466;-77
2024/01/30 00:19:00;;;;;;;13.57;12.10;;;4.10;99.90;;;;;;6157255;23;20412;-76
2024/01/30 00:21:29;;;;;;;12.57;11.27;;;4.10;99.90;;;;;;6156824;23;20436;-78
2024/01/30 00:24:02;;;;;;;12.47;11.27;;;4.00;99.90;;;;;;6157123;23;20443;-79
2024/01/30 00:26:31;;;;;;;11.80;10.70;;;4.10;99.90;;;;;;6156820;23;20419;-76
2024/01/30 00:29:05;;;;;;;13.60;11.47;;;4.10;99.90;;;;;;6157658;23;20424;-78
2024/01/30 00:31:33;;;;;;;15.33;12.50;;;4.00;99.90;;;;;;6157018;23;20416;-76
2024/01/30 00:34:04;;;;;;;14.33;12.93;;;4.00;99.90;;;;;;6158954;23;20420;-77
2024/01/30 00:36:35;;;;;;;15.37;11.87;;;;;;;;;;6163272;23;20802;-77
2024/01/30 00:39:09;;;;;;;13.77;12.23;;;4.00;99.90;;;;;;6164433;23;20479;-78
2024/01/30 00:41:42;;;;;;;13.97;12.60;;;4.00;99.90;;;;;;6160606;23;20460;-76
2024/01/30 00:44:13;;;;;;;16.00;13.37;;;4.00;99.90;;;;;;6159715;23;20438;-76
2024/01/30 00:46:44;;;;;;;14.33;12.83;;;4.00;99.90;;;;;;6162611;23;20417;-77
2024/01/30 00:49:14;;;;;;;14.60;12.40;;;4.00;99.90;;;;;;6162315;23;20407;-77
2024/01/30 00:51:41;;;;;;;13.37;11.97;;;3.60;99.90;;;;;;6161298;23;20411;-76
2024/01/30 00:54:12;;;;;;;18.97;13.37;;;4.20;99.90;;;;;;6160309;23;20432;-78
2024/01/30 00:56:40;;;;;;;14.00;11.93;;;3.90;99.90;;;;;;6160168;23;20373;-78
2024/01/30 00:59:08;;;;;;;13.83;12.23;;;3.90;99.90;;;;;;6160054;23;20412;-78
2024/01/30 01:01:35;;;;;;;13.77;12.30;;;3.90;99.90;;;;;;6160298;23;20490;-75
2024/01/30 01:04:07;;;;;;;14.10;12.30;;;3.80;99.90;;;;;;6159451;23;20416;-77
2024/01/30 01:06:35;;;;;;;14.87;13.00;;;3.80;99.90;;;;;;6158943;23;20430;-77
2024/01/30 01:09:04;;;;;;;14.83;13.43;;;3.80;99.90;;;;;;6157447;23;20443;-77
2024/01/30 01:11:34;;;;;;;14.40;12.70;;;3.80;99.90;;;;;;6157514;23;20420;-78
2024/01/30 01:14:01;;;;;;;14.17;12.77;;;3.80;99.90;;;;;;6157469;23;20476;-77
2024/01/30 01:16:32;;;;;;;16.47;12.90;;;3.80;99.90;;;;;;6158126;23;20412;-76
2024/01/30 01:19:00;;;;;;;14.07;12.67;;;3.80;99.90;;;;;;6159235;23;20436;-77
2024/01/30 01:21:31;;;;;;;14.50;12.63;;;3.90;99.90;;;;;;6157772;23;20435;-76
2024/01/30 01:23:59;;;;;;;14.37;12.87;;;3.50;99.90;;;;;;6158882;23;20439;-77
2024/01/30 01:26:27;;;;;;;14.60;12.97;;;3.80;99.90;;;;;;6159247;23;20416;-77
2024/01/30 01:29:04;;;;;;;13.47;12.17;;;3.80;99.90;;;;;;6159339;23;20403;-76
2024/01/30 01:31:31;;;;;;;12.00;10.90;;;3.80;99.90;;;;;;6158508;23;20496;-76
2024/01/30 01:33:59;;;;;;;13.90;11.97;;;3.80;99.90;;;;;;6157559;23;20759;-76
2024/01/30 01:36:27;;;;;;;15.10;11.80;;;3.70;99.90;;;;;;6157222;23;20388;-77
2024/01/30 01:38:55;;;;;;;14.73;12.97;;;3.40;99.90;;;;;;6156955;23;20814;-77
2024/01/30 01:41:23;;;;;;;13.80;12.27;;;3.70;99.90;;;;;;6158128;23;20504;-78
2024/01/30 01:43:51;;;;;;;13.40;12.10;;;3.70;99.90;;;;;;6158478;23;20447;-77
2024/01/30 01:46:20;;;;;;;11.63;10.53;;;3.70;99.90;;;;;;6158105;23;20412;-77
2024/01/30 01:48:56;;;;;;;12.47;10.60;;;3.30;99.90;;;;;;6161356;23;20416;-77
2024/01/30 01:51:26;;;;;;;13.70;11.57;;;3.70;99.90;;;;;;6159659;23;20471;-78
2024/01/30 01:54:00;;;;;;;14.17;12.17;;;3.60;99.90;;;;;;6159176;23;20424;-77
2024/01/30 01:56:30;;;;;;;14.23;12.73;;;3.70;99.90;;;;;;6160744;23;20474;-78
2024/01/30 01:59:06;;;;;;;14.07;10.80;;;3.60;99.90;;;;;;6161094;23;20392;-76
2024/01/30 02:01:37;;;;;;;16.00;12.13;;;3.60;99.90;;;;;;6159942;23;20411;-78
2024/01/30 02:04:11;;;;;;;17.80;11.80;;;3.60;99.90;;;;;;6157440;23;20464;-76
2024/01/30 02:06:40;;;;;;;12.80;11.47;;;3.60;99.90;;;;;;6157316;23;20380;-78
2024/01/30 02:09:09;;;;;;;13.90;12.47;;;3.60;99.90;;;;;;6157472;23;20412;-79
2024/01/30 02:11:37;;;;;;;16.03;12.03;;;3.80;99.90;;;;;;6156998;23;20419;-77
2024/01/30 02:14:05;;;;;;;12.90;11.60;;;3.50;99.90;;;;;;6156402;23;20503;-76
2024/01/30 02:16:32;;;;;;;13.93;12.50;;;3.10;99.90;;;;;;6157414;23;20801;-76
2024/01/30 02:19:01;;;;;;;14.57;11.67;;;3.30;99.90;;;;;;6157068;23;20431;-76
2024/01/30 02:21:30;;;;;;;12.40;10.93;;;3.30;99.90;;;;;;6156936;23;20408;-77
2024/01/30 02:24:03;;;;;;;14.20;12.80;;;3.30;99.90;;;;;;6155534;23;20507;-77
2024/01/30 02:26:37;;;;;;;15.87;14.20;;;3.30;99.90;;;;;;6155296;23;20420;-76
2024/01/30 02:29:10;;;;;;;16.57;13.80;;;3.10;99.90;;;;;;6155973;23;20471;-79
2024/01/30 02:31:38;;;;;;;15.00;13.50;;;3.20;99.90;;;;;;6156586;23;20416;-77
2024/01/30 02:34:06;;;;;;;15.67;14.07;;;3.40;99.90;;;;;;6155546;23;20424;-77
2024/01/30 02:36:36;;;;;;;14.83;13.13;;;3.20;99.90;;;;;;6155552;23;20489;-76
2024/01/30 02:39:04;;;;;;;14.03;12.43;;;3.30;99.90;;;;;;6154805;23;20411;-77
2024/01/30 02:41:31;;;;;;;20.00;18.30;;;3.20;99.90;;;;;;6155433;23;20412;-77
2024/01/30 02:44:01;;;;;;;28.37;25.70;;;3.20;99.90;;;;;;6156216;23;20971;-77
2024/01/30 02:46:30;;;;;;;25.37;22.83;;;3.30;99.90;;;;;;6161484;23;20407;-77
2024/01/30 02:48:58;;;;;;;21.53;19.60;;;3.30;99.90;;;;;;6171897;23;20416;-75
2024/01/30 02:51:26;;;;;;;19.70;17.90;;;3.10;99.90;;;;;;6167803;23;20412;-76
2024/01/30 02:53:57;;;;;;;21.97;18.07;;;3.20;99.90;;;;;;6160493;23;20452;-76
2024/01/30 02:56:25;;;;;;;19.77;17.93;;;3.20;99.90;;;;;;6157532;23;20466;-77
2024/01/30 02:58:54;;;;;;;24.87;22.67;;;3.20;99.90;;;;;;6157119;23;20431;-80
2024/01/30 03:01:24;;;;;;;24.60;22.20;;;3.20;99.90;;;;;;6157780;23;20467;-76
2024/01/30 03:03:53;;;;;;;27.57;24.97;;;3.20;99.90;;;;;;6160999;23;20444;-76
2024/01/30 03:06:22;;;;;;;27.93;25.43;;;3.10;99.90;;;;;;6161834;23;20564;-77
2024/01/30 03:08:50;;;;;;;27.57;25.07;;;3.10;99.90;;;;;;6164126;23;20435;-77
2024/01/30 03:11:19;;;;;;;23.57;21.30;;;3.40;99.90;;;;;;6163635;23;20400;-76
2024/01/30 03:13:46;;;;;;;21.13;17.70;;;3.10;99.90;;;;;;6160753;23;20424;-77
2024/01/30 03:16:14;;;;;;;17.60;15.50;;;3.40;99.90;;;;;;6162040;23;20641;-77
2024/01/30 03:18:42;;;;;;;16.03;14.30;;;3.10;99.90;;;;;;6160953;23;20412;-77
2024/01/30 03:21:10;;;;;;;16.10;14.10;;;3.10;99.90;;;;;;6165091;23;20420;-78
2024/01/30 03:23:38;;;;;;;16.47;13.57;;;3.00;99.90;;;;;;6164625;23;20446;-77
2024/01/30 03:26:06;;;;;;;14.20;12.80;;;3.00;99.90;;;;;;6163818;23;20409;-76
2024/01/30 03:28:38;;;;;;;14.43;12.93;;;3.00;99.90;;;;;;6162471;23;20419;-75
2024/01/30 03:31:06;;;;;;;14.70;12.70;;;3.00;99.90;;;;;;6159548;23;20416;-76
2024/01/30 03:33:34;;;;;;;16.03;13.90;;;3.00;99.90;;;;;;6160563;23;20424;-77
2024/01/30 03:36:05;;;;;;;14.17;12.67;;;3.00;99.90;;;;;;6160640;23;20423;-78
2024/01/30 03:38:33;;;;;;;13.50;12.13;;;2.50;99.90;;;;;;6160641;23;20384;-76
2024/01/30 03:41:04;;;;;;;13.27;12.00;;;2.60;99.90;;;;;;6161417;23;20799;-76
2024/01/30 03:43:31;;;;;;;13.40;12.10;;;2.90;99.90;;;;;;6162083;23;20507;-76
2024/01/30 03:46:02;;;;;;;14.13;12.80;;;2.80;99.90;;;;;;6162579;23;20392;-77
2024/01/30 03:48:30;;;;;;;14.20;12.90;;;2.90;99.90;;;;;;6161922;23;20710;-78
2024/01/30 03:51:00;;;;;;;14.87;12.90;;;2.90;99.90;;;;;;6160961;23;20407;-77
2024/01/30 03:53:31;;;;;;;13.40;12.10;;;2.80;99.90;;;;;;6162507;23;20491;-75
2024/01/30 03:55:59;;;;;;;15.67;11.87;;;2.80;99.90;;;;;;6166805;23;20418;-78
2024/01/30 03:58:27;;;;;;;13.50;12.20;;;2.80;99.90;;;;;;6166483;23;20416;-76
2024/01/30 04:00:55;;;;;;;13.20;11.90;;;2.80;99.90;;;;;;6164552;23;20408;-75
2024/01/30 04:03:24;;;;;;;14.83;13.30;;;2.80;99.90;;;;;;6165357;23;20478;-75
2024/01/30 04:05:54;;;;;;;14.10;12.70;;;2.80;99.90;;;;;;6165094;23;20400;-75
2024/01/30 04:08:26;;;;;;;12.93;11.70;;;2.80;99.90;;;;;;6163965;23;20552;-76
2024/01/30 04:14:22;;;;;;;14.73;13.10;;;2.80;99.90;;;;;;6074734;23;20443;-76
2024/01/30 04:16:53;;;;;;;13.93;12.67;;;2.90;99.90;;;;;;6168238;23;20419;-75
2024/01/30 04:19:24;;;;;;;12.67;11.43;;;2.80;99.90;;;;;;6164783;23;20400;-76
2024/01/30 04:21:52;;;;;;;13.33;11.70;;;2.80;99.90;;;;;;6165052;23;20401;-78
2024/01/30 04:24:23;;;;;;;16.37;12.50;;;2.70;99.90;;;;;;6164414;23;20432;-76
2024/01/30 04:26:50;;;;;;;13.03;11.73;;;2.40;99.90;;;;;;6159206;23;20443;-77
2024/01/30 04:29:23;;;;;;;14.07;11.90;;;2.70;99.90;;;;;;6158420;23;20403;-77
2024/01/30 04:31:51;;;;;;;13.33;11.90;;;2.70;99.90;;;;;;6159566;23;20478;-79
2024/01/30 04:34:19;;;;;;;12.97;11.77;;;2.70;99.90;;;;;;6157527;23;20798;-77
2024/01/30 04:36:49;;;;;;;13.30;11.93;;;2.60;99.90;;;;;;6156983;23;20471;-78
2024/01/30 04:39:19;;;;;;;13.57;12.20;;;2.70;99.90;;;;;;6157496;23;20942;-76
2024/01/30 04:41:47;;;;;;;33.30;25.43;;;2.60;99.90;;;;;;6158661;23;20412;-78
2024/01/30 04:44:14;;;;;;;31.03;25.73;;;2.60;99.90;;;;;;6157176;23;21094;-78
2024/01/30 04:46:42;;;;;;;20.97;17.30;;;2.70;99.90;;;;;;6158312;23;20412;-78
2024/01/30 04:49:10;;;;;;;15.97;13.50;;;2.90;99.90;;;;;;6157315;23;20412;-77
2024/01/30 04:51:38;;;;;;;12.83;11.53;;;2.70;99.90;;;;;;6158079;23;20415;-78
2024/01/30 04:54:11;;;;;;;13.30;11.93;;;2.90;99.90;;;;;;6158310;23;20435;-78
2024/01/30 04:56:45;;;;;;;12.93;11.57;;;2.60;99.90;;;;;;6158639;23;20409;-77
2024/01/30 04:59:21;;;;;;;15.93;12.77;;;2.60;99.90;;;;;;6158355;23;20427;-77
2024/01/30 05:01:49;;;;;;;13.40;12.07;;;2.60;99.90;;;;;;6158460;23;20858;-76
2024/01/30 05:04:17;;;;;;;15.60;12.27;;;2.60;99.90;;;;;;6156766;23;20792;-77
2024/01/30 05:06:45;;;;;;;14.23;12.90;;;2.20;99.90;;;;;;6157058;23;20498;-76
2024/01/30 05:09:21;;;;;;;13.50;12.20;;;2.50;99.90;;;;;;6159668;23;20487;-76
2024/01/30 05:11:49;;;;;;;14.17;11.50;;;2.50;99.90;;;;;;6160398;23;20806;-77
2024/01/30 05:14:19;;;;;;;16.37;13.20;;;2.50;99.90;;;;;;6160277;23;20972;-77
2024/01/30 05:16:47;;;;;;;19.67;16.67;;;2.50;99.90;;;;;;6159862;23;20403;-79
2024/01/30 05:19:17;;;;;;;18.10;15.27;;;2.60;99.90;;;;;;6159625;23;20467;-78
2024/01/30 05:21:54;;;;;;;15.27;13.83;;;2.50;99.90;;;;;;6159325;23;20416;-77
2024/01/30 05:24:24;;;;;;;14.37;12.67;;;2.50;99.90;;;;;;6159495;23;20467;-77
2024/01/30 05:26:51;;;;;;;16.73;13.23;;;2.50;99.90;;;;;;6158777;23;20424;-77
2024/01/30 05:29:18;;;;;;;15.33;12.77;;;2.50;99.90;;;;;;6159482;23;20491;-78
2024/01/30 05:31:55;;;;;;;13.40;12.00;;;2.50;99.90;;;;;;6158709;23;20414;-77
2024/01/30 05:34:27;;;;;;;14.13;12.63;;;2.40;99.90;;;;;;6158876;23;20441;-76
2024/01/30 05:36:57;;;;;;;13.70;12.30;;;2.40;99.90;;;;;;6159762;23;20521;-76
2024/01/30 05:39:27;;;;;;;14.20;12.70;;;2.40;99.90;;;;;;6161442;23;20860;-78
2024/01/30 05:42:01;;;;;;;14.30;12.87;;;2.40;99.90;;;;;;6161380;23;20416;-76
2024/01/30 05:44:33;;;;;;;14.23;12.80;;;2.10;99.90;;;;;;6164582;23;20787;-77
2024/01/30 05:47:06;;;;;;;14.03;12.73;;;2.40;99.90;;;;;;6163394;23;20794;-77
2024/01/30 05:49:39;;;;;;;13.73;12.33;;;2.40;99.90;;;;;;6160309;23;20419;-78
2024/01/30 05:52:12;;;;;;;13.60;11.70;;;2.40;99.90;;;;;;6159932;23;20431;-78
2024/01/30 05:54:45;;;;;;;13.57;12.10;;;2.40;99.90;;;;;;6158474;23;20412;-78
2024/01/30 05:57:15;;;;;;;15.03;12.80;;;2.40;99.90;;;;;;6157121;23;20411;-78
2024/01/30 05:59:52;;;;;;;13.80;12.40;;;2.40;99.90;;;;;;6156634;23;20499;-80
2024/01/30 06:02:20;;;;;;;14.37;12.90;;;2.20;99.90;;;;;;6159880;23;20412;-77
2024/01/30 06:04:48;;;;;;;13.97;12.60;;;2.40;99.90;;;;;;6166689;23;20446;-80
2024/01/30 06:07:17;;;;;;;13.20;12.03;;;2.40;99.90;;;;;;6166480;23;20443;-79
2024/01/30 06:09:46;;;;;;;13.47;11.90;;;2.40;99.90;;;;;;6166003;23;20396;-80
2024/01/30 06:12:16;;;;;;;14.27;11.73;;;2.40;99.90;;;;;;6168914;23;20447;-78
2024/01/30 06:14:46;;;;;;;19.90;12.83;;;2.40;99.90;;;;;;6169431;23;20404;-79
2024/01/30 06:17:14;;;;;;;16.27;13.70;;;2.40;99.90;;;;;;6166461;23;20412;-78
2024/01/30 06:19:41;;;;;;;13.90;11.77;;;2.40;99.90;;;;;;6165347;23;20412;-78
2024/01/30 06:22:09;;;;;;;15.77;14.20;;;2.10;99.90;;;;;;6166325;23;20391;-78
2024/01/30 06:24:39;;;;;;;14.60;13.10;;;2.40;99.90;;;;;;6166540;23;20446;-77
2024/01/30 06:27:11;;;;;;;14.60;12.07;;;2.40;99.90;;;;;;6162734;23;20480;-78
2024/01/30 06:29:42;;;;;;;13.50;11.50;;;2.40;99.90;;;;;;6161887;23;20408;-79
2024/01/30 06:32:12;;;;;;;13.73;11.70;;;2.30;99.90;;;;;;6160998;23;20428;-78
2024/01/30 06:34:44;;;;;;;16.60;13.07;;;2.40;99.90;;;;;;6160050;23;20428;-80
2024/01/30 06:37:11;;;;;;;14.97;12.60;;;2.40;99.90;;;;;;6161490;23;20400;-78
2024/01/30 06:39:51;;;;;;;16.60;13.60;;;2.50;99.90;;;;;;6160186;23;20392;-78
2024/01/30 06:42:26;;;;;;;18.43;14.13;;;2.70;99.90;;;;;;6159631;23;20502;-77
2024/01/30 06:44:55;;;;;;;13.77;12.27;;;2.80;99.90;;;;;;6159181;23;20438;-78
2024/01/30 06:47:30;;;;;;;15.90;13.10;;;2.80;99.90;;;;;;6159997;23;20438;-78
2024/01/30 06:50:11;;;;;;;15.77;12.97;;;2.90;99.90;;;;;;6158970;23;20489;-78
2024/01/30 06:52:39;;;;;;;14.40;12.90;;;2.90;99.90;;;;;;6158942;23;20435;-80
2024/01/30 06:55:12;;;;;;;12.83;11.50;;;2.80;99.90;;;;;;6159031;23;20471;-78
2024/01/30 06:57:43;;;;;;;13.77;12.47;;;2.70;99.90;;;;;;6159888;23;20411;-78
2024/01/30 07:00:18;;;;;;;13.27;11.60;;;2.70;99.90;;;;;;6162397;23;20412;-77
2024/01/30 07:02:51;;;;;;;13.00;11.23;;;2.60;99.90;;;;;;6167530;23;20443;-79
2024/01/30 07:05:21;;;;;;;12.90;11.03;;;2.60;99.90;;;;;;6170674;23;20435;-78
2024/01/30 07:07:53;;;;;;;13.57;12.17;;;2.60;99.90;;;;;;6175104;23;20415;-77
2024/01/30 07:10:22;;;;;;;13.43;11.83;;;2.60;99.90;;;;;;6175712;23;20408;-78
2024/01/30 07:13:00;;;;;;;13.07;11.67;;;2.60;99.90;;;;;;6176018;23;20535;-79
2024/01/30 07:15:28;;;;;;;13.53;12.07;;;2.60;99.90;;;;;;6178685;23;20409;-78
2024/01/30 07:18:09;;;;;;;13.70;12.40;;;2.50;99.90;;;;;;6178286;23;20494;-78
2024/01/30 07:20:41;;;;;;;14.10;12.27;;;2.60;99.90;;;;;;6174114;23;20415;-79
2024/01/30 07:23:13;;;;;;;14.17;12.77;;;2.60;99.90;;;;;;6168685;23;20443;-80
2024/01/30 07:25:44;;;;;;;13.80;12.33;;;2.60;99.90;;;;;;6162738;23;20735;-78
2024/01/30 07:28:19;;;;;;;16.73;13.00;;;2.60;99.90;;;;;;6162062;23;20410;-78
2024/01/30 07:30:50;;;;;;;20.80;17.73;;;2.60;99.90;;;;;;6165473;23;20457;-78
2024/01/30 07:33:17;;;;;;;20.00;16.13;;;2.60;99.90;;;;;;6167290;23;20430;-77
2024/01/30 07:35:49;;;;;;;24.50;16.50;;;2.90;99.90;;;;;;6165874;23;20467;-78
2024/01/30 07:38:19;;;;;;;20.93;15.43;;;2.70;99.90;;;;;;6165124;23;20412;-78
2024/01/30 07:40:47;;;;;;;17.70;13.57;;;2.70;99.90;;;;;;6164618;23;20425;-79
2024/01/30 07:43:23;;;;;;;21.00;13.70;;;2.70;99.90;;;;;;6164565;23;20432;-79
2024/01/30 07:45:55;;;;;;;15.00;12.93;;;2.70;99.90;;;;;;6167394;23;20407;-77
2024/01/30 07:48:23;;;;;;;20.13;13.67;;;3.00;99.90;;;;;;6167160;23;20895;-77
2024/01/30 07:50:54;;;;;;;15.90;13.63;;;2.80;99.90;;;;;;6167309;23;20458;-78
2024/01/30 07:53:25;;;;;;;15.40;13.80;;;2.80;99.90;;;;;;6168513;23;20400;-78
2024/01/30 07:55:54;;;;;;;14.80;13.17;;;2.80;99.90;;;;;;6166135;23;20369;-77
2024/01/30 07:58:27;;;;;;;21.13;14.07;;;2.90;99.90;;;;;;6165249;23;20414;-79
2024/01/30 08:01:06;;;;;;;15.20;13.60;;;2.90;99.90;;;;;;6167688;23;20483;-78
2024/01/30 08:03:44;;;;;;;14.73;12.43;;;3.00;99.90;;;;;;6168517;23;20435;-78
2024/01/30 08:06:18;;;;;;;15.87;14.30;;;3.10;99.90;;;;;;6171053;23;20466;-79
2024/01/30 08:08:49;;;;;;;14.60;13.10;;;3.20;99.90;;;;;;6172379;23;20407;-79
2024/01/30 08:11:25;;;;;;;15.07;13.50;;;3.30;99.90;;;;;;6172301;23;20481;-80
2024/01/30 08:13:57;;;;;;;13.57;12.20;;;3.40;99.90;;;;;;6173411;23;20488;-79
2024/01/30 08:16:32;;;;;;;14.17;12.77;;;3.50;99.90;;;;;;6171392;23;20484;-80
2024/01/30 08:19:03;;;;;;;14.70;13.20;;;3.30;99.90;;;;;;6169527;23;20400;-81
2024/01/30 08:21:36;;;;;;;14.07;12.57;;;3.80;99.90;;;;;;6169183;23;20392;-78
2024/01/30 08:24:10;;;;;;;17.67;14.27;;;3.60;99.90;;;;;;6166406;23;20440;-80
2024/01/30 08:26:50;;;;;;;15.90;13.77;;;4.10;99.90;;;;;;6165331;23;20416;-80
2024/01/30 08:29:22;;;;;;;14.97;13.50;;;4.20;99.90;;;;;;6166136;23;20388;-80
2024/01/30 08:31:55;;;;;;;15.30;12.97;;;4.10;99.90;;;;;;6166671;23;20735;-80
2024/01/30 08:34:29;;;;;;;17.13;13.07;;;4.60;99.90;;;;;;6167941;23;20428;-79
2024/01/30 08:36:58;;;;;;;15.10;13.50;;;4.50;99.90;;;;;;6169200;23;20444;-78
2024/01/30 08:39:41;;;;;;;13.97;12.40;;;5.00;99.90;;;;;;6171860;23;20407;-79
2024/01/30 08:42:44;;;;;;;13.57;12.23;;;5.20;99.90;;;;;;6174471;23;20416;-78
2024/01/30 08:45:33;;;;;;;15.93;13.23;;;5.40;99.90;;;;;;6172024;23;20500;-81
2024/01/30 08:48:26;;;;;;;13.67;12.23;;;5.70;99.90;;;;;;6171444;23;20447;-77
2024/01/30 08:51:07;;;;;;;12.70;11.40;;;5.90;99.90;;;;;;6169013;23;20417;-78
2024/01/30 08:53:55;;;;;;;13.30;11.90;;;6.10;99.90;;;;;;6166733;23;20436;-76
2024/01/30 08:56:31;;;;;;;12.17;11.00;;;6.20;99.90;;;;;;6167148;23;20418;-78
2024/01/30 08:59:10;;;;;;;15.83;14.13;;;6.10;99.90;;;;;;6166145;23;20420;-80
2024/01/30 09:01:46;;;;;;;16.90;14.23;;;6.00;99.90;;;;;;6165043;23;20396;-77
2024/01/30 09:04:26;;;;;;;12.97;11.67;;;6.00;99.90;;;;;;6165687;23;20475;-79
2024/01/30 09:07:00;;;;;;;12.93;11.73;;;6.00;99.90;;;;;;6166842;23;20416;-79
2024/01/30 09:09:48;;;;;;;13.50;12.10;;;5.90;99.90;;;;;;6167157;23;20395;-79
2024/01/30 09:12:17;;;;;;;14.20;12.10;;;5.90;99.90;;;;;;6166662;23;20962;-78
2024/01/30 09:15:01;;;;;;;12.53;11.33;;;6.30;99.90;;;;;;6164612;23;20795;-79
2024/01/30 09:17:32;;;;;;;13.43;12.00;;;6.60;99.90;;;;;;6166381;23;20389;-77
2024/01/30 09:20:00;;;;;;;13.33;11.93;;;6.90;99.90;;;;;;6163106;23;20438;-78
2024/01/30 09:22:27;;;;;;;13.07;11.77;;;7.20;99.90;;;;;;6162364;23;20473;-80
2024/01/30 09:24:58;;;;;;;13.27;11.97;;;7.40;99.90;;;;;;6159727;23;20445;-81
2024/01/30 09:27:38;;;;;;;14.27;12.70;;;7.40;99.90;;;;;;6158854;23;20489;-80
2024/01/30 09:30:12;;;;;;;13.40;12.10;;;7.40;99.90;;;;;;6158912;23;20430;-79
2024/01/30 09:32:43;;;;;;;12.67;11.47;;;7.30;99.90;;;;;;6159042;23;20438;-77
2024/01/30 09:35:13;;;;;;;13.10;11.80;;;7.70;99.90;;;;;;6159562;23;20408;-78
2024/01/30 09:37:45;;;;;;;13.70;12.10;;;8.00;99.90;;;;;;6159793;23;20758;-80
2024/01/30 09:40:13;;;;;;;11.87;10.90;;;8.30;99.90;;;;;;6157924;23;20473;-81
2024/01/30 09:42:43;;;;;;;13.30;12.10;;;8.50;99.90;;;;;;6158107;23;20483;-79
2024/01/30 09:45:14;;;;;;;14.33;12.40;;;8.90;99.90;;;;;;6159136;23;20435;-80
2024/01/30 09:47:58;;;;;;;12.80;11.20;;;9.20;99.90;;;;;;6161875;23;20376;-81
2024/01/30 09:50:47;;;;;;;13.00;11.80;;;8.90;99.90;;;;;;6159196;23;20496;-80
2024/01/30 09:53:37;;;;;;;12.70;11.50;;;8.80;99.90;;;;;;6160882;23;20515;-79
2024/01/30 09:56:13;;;;;;;17.80;12.63;;;9.00;99.90;;;;;;6161815;23;20440;-78
2024/01/30 09:58:48;;;;;;;15.80;11.90;;;9.20;99.90;;;;;;6161251;23;20419;-78
2024/01/30 10:01:26;;;;;;;14.10;12.00;;;9.10;99.90;;;;;;6163811;23;20415;-80
2024/01/30 10:03:58;;;;;;;12.80;11.40;;;9.10;99.90;;;;;;6162930;23;20494;-79
2024/01/30 10:06:27;;;;;;;13.00;11.43;;;9.40;99.90;;;;;;6164517;23;20466;-77
2024/01/30 10:09:00;;;;;;;13.03;11.70;;;9.50;99.90;;;;;;6166410;23;20442;-78
2024/01/30 10:11:29;;;;;;;13.50;12.10;;;9.70;99.90;;;;;;6165325;23;20509;-79
2024/01/30 10:14:27;;;;;;;12.63;11.43;;;9.80;99.90;;;;;;6167034;23;20460;-78
2024/01/30 10:17:06;;;;;;;13.13;12.03;;;9.50;99.90;;;;;;6168349;23;20438;-79
2024/01/30 10:19:43;;;;;;;13.80;12.47;;;9.30;99.90;;;;;;6172414;23;20396;-80
2024/01/30 10:22:12;;;;;;;12.83;11.53;;;9.60;99.90;;;;;;6172859;23;20892;-79
2024/01/30 10:24:45;;;;;;;12.90;11.70;;;9.70;99.90;;;;;;6171356;23;20491;-81
2024/01/30 10:27:23;;;;;;;14.97;12.73;;;9.70;99.90;;;;;;6170603;23;20419;-81
2024/01/30 10:29:58;;;;;;;13.63;12.27;;;9.70;99.90;;;;;;6169291;23;20427;-79
2024/01/30 10:32:31;;;;;;;15.33;12.00;;;9.80;99.90;;;;;;6169512;23;20418;-77
2024/01/30 10:35:04;;;;;;;14.10;12.70;;;10.00;99.90;;;;;;6166066;23;20416;-81
2024/01/30 10:37:33;;;;;;;14.10;12.70;;;9.70;99.90;;;;;;6175100;23;20415;-79
2024/01/30 10:40:07;;;;;;;13.20;11.97;;;9.70;99.90;;;;;;6173394;23;20411;-78
2024/01/30 10:42:40;;;;;;;12.57;11.47;;;9.60;99.90;;;;;;6174228;23;20422;-78
2024/01/30 10:45:23;;;;;;;14.30;12.63;;;9.80;99.90;;;;;;6170401;23;20440;-78
2024/01/30 10:47:57;;;;;;;17.13;11.97;;;9.70;99.90;;;;;;6168311;23;20523;-80
2024/01/30 10:50:37;;;;;;;13.87;12.47;;;10.00;99.90;;;;;;6169991;23;20416;-78
2024/01/30 10:53:06;;;;;;;12.43;11.20;;;9.70;99.90;;;;;;6168643;23;20447;-80
2024/01/30 10:55:43;;;;;;;14.17;12.63;;;9.60;99.90;;;;;;6168980;23;20415;-80
2024/01/30 10:58:11;;;;;;;11.93;10.83;;;9.80;99.90;;;;;;6170193;23;20369;-81
2024/01/30 11:00:41;;;;;;;14.53;12.43;;;9.90;99.90;;;;;;6172700;23;20427;-77
2024/01/30 11:03:11;;;;;;;16.23;13.33;;;9.80;99.90;;;;;;6172570;23;20438;-80
2024/01/30 11:05:42;;;;;;;14.23;12.93;;;9.80;99.90;;;;;;6171087;23;20534;-78
2024/01/30 11:08:14;;;;;;;14.60;13.23;;;9.90;99.90;;;;;;6170017;23;20468;-79
2024/01/30 11:10:50;;;;;;;13.33;12.10;;;9.80;99.90;;;;;;6170877;23;20408;-80
2024/01/30 11:13:21;;;;;;;15.07;12.90;;;10.00;99.90;;;;;;6168866;23;20439;-80
2024/01/30 11:15:50;;;;;;;14.30;12.83;;;10.10;99.90;;;;;;6169411;23;20415;-79
2024/01/30 11:18:30;;;;;;;13.33;11.77;;;10.30;99.90;;;;;;6169110;23;20443;-79
2024/01/30 11:21:02;;;;;;;14.03;12.60;;;10.30;99.90;;;;;;6159310;23;20411;-78
2024/01/30 11:23:40;;;;;;;14.03;11.90;;;10.60;99.90;;;;;;6159778;23;20491;-79
2024/01/30 11:26:22;;;;;;;12.70;11.17;;;10.20;99.90;;;;;;6158509;23;20443;-79
2024/01/30 11:29:02;;;;;;;12.53;11.33;;;10.40;99.90;;;;;;6157911;23;20443;-79
2024/01/30 11:31:32;;;;;;;12.73;11.60;;;10.50;99.90;;;;;;6158189;23;20415;-78
2024/01/30 11:34:03;;;;;;;15.07;11.73;;;10.60;99.90;;;;;;6158857;23;20426;-80
2024/01/30 11:36:38;;;;;;;14.67;13.20;;;10.50;99.90;;;;;;6161521;23;20408;-79
2024/01/30 11:39:07;;;;;;;13.50;11.33;;;10.50;99.90;;;;;;6163454;23;20427;-80
2024/01/30 11:41:35;;;;;;;14.50;13.03;;;10.40;99.90;;;;;;6165498;23;20392;-80
2024/01/30 11:44:14;;;;;;;14.53;11.93;;;10.50;99.90;;;;;;6162739;23;20428;-79
2024/01/30 11:46:47;;;;;;;15.30;12.13;;;10.50;99.90;;;;;;6159266;23;20486;-79
2024/01/30 11:49:23;;;;;;;13.73;12.40;;;10.70;99.90;;;;;;6158515;23;20412;-80
2024/01/30 11:51:55;;;;;;;15.70;12.60;;;10.70;99.90;;;;;;6160565;23;20379;-81
2024/01/30 11:54:26;;;;;;;13.70;11.70;;;10.70;99.90;;;;;;6162502;23;20891;-80
2024/01/30 11:56:54;;;;;;;17.23;13.33;;;10.80;99.90;;;;;;6162714;23;20404;-80
2024/01/30 11:59:31;;;;;;;13.80;12.40;;;10.70;99.90;;;;;;6161469;23;20409;-80
2024/01/30 12:02:00;;;;;;;19.13;13.40;;;10.80;99.90;;;;;;6162649;23;20423;-81
2024/01/30 12:04:30;;;;;;;17.50;13.70;;;10.90;99.90;;;;;;6162653;23;20438;-80
2024/01/30 12:07:06;;;;;;;16.27;13.07;;;11.00;99.90;;;;;;6163674;23;20604;-80
2024/01/30 12:09:39;;;;;;;14.70;13.07;;;11.00;99.90;;;;;;6164261;23;20430;-82
2024/01/30 12:12:14;;;;;;;14.40;12.93;;;10.60;99.90;;;;;;6163961;23;20422;-81
2024/01/30 12:14:49;;;;;;;18.20;13.30;;;10.80;99.90;;;;;;6163434;23;20667;-81
2024/01/30 12:17:33;;;;;;;14.10;12.80;;;10.80;99.90;;;;;;6162528;23;20423;-80
2024/01/30 12:20:14;;;;;;;14.27;12.10;;;11.00;99.90;;;;;;6163057;23;20415;-80
2024/01/30 12:23:00;;;;;;;14.23;12.60;;;11.00;99.90;;;;;;6162130;23;20509;-81
2024/01/30 12:25:50;;;;;;;15.13;12.70;;;11.10;99.90;;;;;;6162456;23;20989;-79
2024/01/30 12:28:33;;;;;;;19.40;13.30;;;11.40;99.90;;;;;;6162294;23;20404;-81
2024/01/30 12:31:07;;;;;;;18.67;12.97;;;11.20;99.90;;;;;;6161157;23;20408;-82
2024/01/30 12:33:46;;;;;;;13.73;11.63;;;11.10;99.90;;;;;;6161213;23;20435;-79
2024/01/30 12:36:21;;;;;;;13.90;12.43;;;11.20;99.90;;;;;;6161287;23;20395;-79
2024/01/30 12:39:04;;;;;;;12.90;11.23;;;11.20;99.90;;;;;;6160050;23;20470;-79
2024/01/30 12:44:26;;;;;;;14.67;12.50;;;11.20;99.90;;;;;;6158948;23;20431;-79
2024/01/30 12:46:57;;;;;;;14.17;12.03;;;11.30;99.90;;;;;;6159597;23;20796;-80
2024/01/30 12:49:30;;;;;;;13.27;11.80;;;11.50;99.90;;;;;;6160090;23;20412;-79
2024/01/30 12:52:03;;;;;;;13.80;12.40;;;11.50;99.90;;;;;;6160166;23;20749;-80
2024/01/30 12:54:44;;;;;;;15.10;12.57;;;11.50;99.90;;;;;;6160148;23;20416;-80
2024/01/30 12:57:16;;;;;;;14.47;12.57;;;11.60;99.90;;;;;;6160081;23;20730;-80
2024/01/30 12:59:51;;;;;;;15.63;11.43;;;11.70;99.90;;;;;;6157183;23;20416;-79
2024/01/30 13:02:19;;;;;;;16.10;12.30;;;11.60;99.90;;;;;;6159910;23;20427;-79
2024/01/30 13:04:50;;;;;;;14.87;12.50;;;11.70;99.90;;;;;;6158305;23;20440;-78
2024/01/30 13:07:22;;;;;;;18.47;12.90;;;11.80;99.90;;;;;;6162384;23;20435;-80